Time;durP1;ratioP1;P1;durP2;ratioP2;P2;SDS_P1;SDS_P2;PMS_P1;PMS_P2;Temp;Humidity;BMP_temperature;BMP_pressure;BME280_temperature;BME280_humidity;BME280_pressure;Samples;Min_cycle;Max_cycle;Signal;HPM_P1;HPM_P2
2022/03/24 00:03:43;;;;;;;14.93;7.12;;;;;;;10.08;23.24;100787.41;7764842;32;38726;-75
2022/03/24 00:07:59;;;;;;;13.75;7.15;;;;;;;10.03;23.22;100779.97;7765094;32;37516;-75
2022/03/24 00:12:16;;;;;;;13.60;6.87;;;;;;;9.92;23.73;100778.12;7751099;32;39360;-75
2022/03/24 00:16:32;;;;;;;13.23;7.53;;;;;;;9.82;23.60;100767.88;7764899;32;40909;-75
2022/03/24 00:20:48;;;;;;;18.83;7.22;;;;;;;9.90;23.64;100755.75;7764740;32;37832;-75
2022/03/24 00:25:05;;;;;;;12.05;6.70;;;;;;;9.77;23.37;100756.88;7764821;32;37867;-75
2022/03/24 00:29:21;;;;;;;15.82;6.95;;;;;;;9.83;23.20;100758.63;7764878;32;39157;-75
2022/03/24 00:33:38;;;;;;;16.40;7.60;;;;;;;9.90;23.19;100753.00;7764694;32;39728;-75
2022/03/24 00:37:54;;;;;;;13.10;7.20;;;;;;;9.67;23.64;100743.06;7764657;32;37930;-75
2022/03/24 00:42:11;;;;;;;16.50;8.40;;;;;;;9.70;23.85;100748.03;7764463;32;37162;-75
2022/03/24 00:46:28;;;;;;;18.33;8.70;;;;;;;9.86;23.73;100758.13;7764441;32;39852;-75
2022/03/24 00:50:45;;;;;;;15.82;8.05;;;;;;;9.83;23.61;100741.44;7764374;32;40003;-75
2022/03/24 00:55:01;;;;;;;16.33;8.27;;;;;;;9.71;23.79;100739.63;7764210;32;37970;-75
2022/03/24 00:59:17;;;;;;;18.08;9.63;;;;;;;9.53;24.21;100737.88;7763995;32;37237;-75
2022/03/24 01:03:33;;;;;;;18.33;8.80;;;;;;;9.33;24.66;100738.31;7764110;32;40640;-75
2022/03/24 01:07:50;;;;;;;17.83;8.38;;;;;;;9.49;24.35;100730.47;7764020;32;39612;-75
2022/03/24 01:12:06;;;;;;;21.87;9.43;;;;;;;9.34;24.43;100728.25;7763827;32;37939;-75
2022/03/24 01:16:25;;;;;;;20.37;10.10;;;;;;;9.08;25.29;100718.72;7763833;32;37178;-75
2022/03/24 01:20:42;;;;;;;21.08;10.70;;;;;;;9.40;25.21;100719.13;7763719;32;39291;-75
2022/03/24 01:24:59;;;;;;;27.10;11.77;;;;;;;9.12;25.86;100717.16;7764635;32;40063;-75
2022/03/24 01:29:15;;;;;;;23.70;13.25;;;;;;;9.15;26.36;100713.97;7766727;32;37745;-75
2022/03/24 01:33:31;;;;;;;21.00;8.85;;;;;;;8.91;27.05;100719.44;7766849;32;38053;-75
2022/03/24 01:37:48;;;;;;;20.08;8.73;;;;;;;8.86;25.80;100708.44;7766914;32;39748;-75
2022/03/24 01:42:05;;;;;;;20.23;8.65;;;;;;;8.91;25.17;100708.56;7766666;32;39957;-75
2022/03/24 01:46:24;;;;;;;19.20;9.30;;;;;;;8.96;24.89;100705.97;7766618;32;39084;-75
2022/03/24 01:50:40;;;;;;;19.48;9.30;;;;;;;8.99;24.83;100710.94;7766643;32;38044;-75
2022/03/24 01:54:59;;;;;;;18.42;10.15;;;;;;;8.94;25.24;100708.09;7766570;32;40119;-75
2022/03/24 01:59:16;;;;;;;25.48;11.10;;;;;;;8.79;26.02;100705.03;7752330;32;39952;-75
2022/03/24 02:03:32;;;;;;;22.52;11.23;;;;;;;8.49;26.61;100706.00;7752584;32;37925;-75
2022/03/24 02:07:50;;;;;;;18.60;11.18;;;;;;;8.51;26.62;100703.84;7752486;32;37089;-75
2022/03/24 02:12:07;;;;;;;24.42;11.55;;;;;;;8.30;26.93;100704.41;7766295;32;39393;-75
2022/03/24 02:16:27;;;;;;;23.20;11.07;;;;;;;8.04;27.11;100701.06;7766291;32;39592;-75
2022/03/24 02:20:44;;;;;;;24.80;12.40;;;;;;;8.33;26.76;100702.06;7752687;32;38539;-75
2022/03/24 02:25:00;;;;;;;24.58;13.35;;;;;;;8.17;27.26;100702.72;7766134;32;37992;-75
2022/03/24 02:29:18;;;;;;;27.17;13.57;;;;;;;7.86;28.21;100697.34;7766126;32;40000;-75
2022/03/24 02:33:34;;;;;;;28.67;14.07;;;;;;;7.95;28.36;100694.28;7766067;32;39961;-74
2022/03/24 02:37:50;;;;;;;22.45;13.27;;;;;;;7.93;28.21;100693.69;7751307;32;38759;-75
2022/03/24 02:42:08;;;;;;;26.40;13.77;;;;;;;7.99;27.93;100690.87;7765999;32;37286;-75
2022/03/24 02:46:26;;;;;;;24.50;12.73;;;;;;;7.93;27.99;100686.38;7752325;32;38248;-75
2022/03/24 02:50:42;;;;;;;20.40;11.88;;;;;;;7.95;27.97;100688.84;7765813;32;40864;-75
2022/03/24 02:54:58;;;;;;;23.35;12.82;;;;;;;7.90;28.26;100682.25;7765689;32;38009;-75
2022/03/24 02:59:15;;;;;;;27.17;12.37;;;;;;;7.88;27.77;100680.81;7765621;32;38247;-75
2022/03/24 03:03:31;;;;;;;21.87;12.95;;;;;;;8.03;27.33;100675.78;7765704;32;39278;-75
2022/03/24 03:07:48;;;;;;;22.00;12.37;;;;;;;8.01;27.47;100677.91;7765734;32;40611;-75
2022/03/24 03:12:05;;;;;;;24.42;12.85;;;;;;;7.96;27.58;100682.38;7765620;32;37912;-75
2022/03/24 03:16:21;;;;;;;25.12;13.25;;;;;;;7.97;27.34;100681.31;7751808;32;37264;-75
2022/03/24 03:20:37;;;;;;;24.55;13.05;;;;;;;8.00;27.15;100681.69;7765443;32;40282;-75
2022/03/24 03:24:53;;;;;;;22.23;12.75;;;;;;;7.81;27.58;100672.78;7765545;32;40884;-75
2022/03/24 03:29:10;;;;;;;24.75;12.70;;;;;;;7.84;27.54;100668.78;7765414;32;37606;-75
2022/03/24 03:33:27;;;;;;;23.35;12.68;;;;;;;7.60;28.08;100670.59;7765371;32;37975;-75
2022/03/24 03:37:43;;;;;;;23.65;12.85;;;;;;;7.72;27.80;100669.56;7765272;32;40195;-75
2022/03/24 03:41:59;;;;;;;24.23;12.88;;;;;;;7.82;27.39;100670.91;7765206;32;39582;-75
2022/03/24 03:46:16;;;;;;;21.80;12.57;;;;;;;7.84;27.35;100666.06;7765198;32;37617;-75
2022/03/24 03:50:32;;;;;;;23.08;12.32;;;;;;;7.56;27.63;100663.97;7764991;32;37347;-75
2022/03/24 03:54:48;;;;;;;23.87;11.65;;;;;;;7.59;27.40;100664.34;7765189;32;40082;-75
2022/03/24 03:59:05;;;;;;;22.75;12.25;;;;;;;7.62;27.78;100657.59;7764857;32;40439;-75
2022/03/24 04:03:34;;;;;;;24.52;11.60;;;;;;;7.55;27.77;100657.69;7764923;32;37740;-75
2022/03/24 04:07:50;;;;;;;22.13;11.73;;;;;;;7.53;27.88;100649.78;7765066;32;37940;-75
2022/03/24 04:12:07;;;;;;;20.50;11.07;;;;;;;7.42;28.07;100653.28;7764943;32;39346;-75
2022/03/24 04:16:23;;;;;;;35.53;17.90;;;;;;;7.47;27.84;100645.28;7764853;32;40766;-75
2022/03/24 04:20:39;;;;;;;31.65;14.75;;;;;;;7.23;28.24;100654.41;7764653;32;38032;-75
2022/03/24 04:24:55;;;;;;;25.62;13.57;;;;;;;7.30;28.53;100649.72;7764833;32;37123;-74
2022/03/24 04:29:11;;;;;;;21.17;12.18;;;;;;;7.19;28.61;100653.19;7764771;32;39799;-75
2022/03/24 04:33:27;;;;;;;32.85;16.80;;;;;;;7.23;28.70;100649.78;7764650;32;39651;-75
2022/03/24 04:37:44;;;;;;;20.85;11.80;;;;;;;7.26;28.64;100649.34;7764579;32;37549;-75
2022/03/24 04:42:00;;;;;;;23.02;12.30;;;;;;;6.81;29.15;100646.13;7764436;32;37995;-75
2022/03/24 04:46:18;;;;;;;19.87;11.35;;;;;;;6.64;31.86;100646.75;7764562;32;39450;-74
2022/03/24 04:50:35;;;;;;;21.08;11.98;;;;;;;6.59;31.04;100643.87;7764346;32;39949;-75
2022/03/24 04:54:56;;;;;;;19.98;11.55;;;;;;;6.41;30.82;100644.66;7764185;32;38817;-75
2022/03/24 04:59:12;;;;;;;23.75;10.73;;;;;;;6.25;30.70;100647.97;7763038;32;37817;-74
2022/03/24 05:03:29;;;;;;;16.15;9.88;;;;;;;6.15;31.26;100648.44;7764266;32;39376;-74
2022/03/24 05:07:45;;;;;;;20.08;11.10;;;;;;;6.09;31.53;100643.91;7764048;32;41257;-74
2022/03/24 05:12:01;;;;;;;20.15;10.30;;;;;;;6.39;31.00;100644.88;7763863;32;37924;-75
2022/03/24 05:16:18;;;;;;;18.23;10.90;;;;;;;6.53;30.38;100645.56;7763837;32;37103;-75
2022/03/24 05:20:34;;;;;;;21.62;11.05;;;;;;;6.45;30.91;100642.34;7763624;32;39410;-75
2022/03/24 05:24:50;;;;;;;20.27;10.30;;;;;;;6.22;32.00;100641.09;7763518;32;40128;-75
2022/03/24 05:29:06;;;;;;;22.50;11.30;;;;;;;6.31;31.82;100653.31;7763328;32;38022;-75
2022/03/24 05:33:22;;;;;;;22.35;11.63;;;;;;;6.24;32.50;100655.22;7763224;32;38047;-75
2022/03/24 05:37:38;;;;;;;24.00;10.70;;;;;;;6.25;32.77;100658.78;7763234;32;39447;-75
2022/03/24 05:41:54;;;;;;;24.10;11.27;;;;;;;6.36;32.16;100660.75;7763075;32;40017;-75
2022/03/24 05:46:10;;;;;;;21.60;10.18;;;;;;;6.29;31.65;100660.00;7749140;32;38766;-75
2022/03/24 05:50:28;;;;;;;17.80;10.35;;;;;;;6.17;31.43;100662.59;7762963;32;37502;-74
2022/03/24 05:54:47;;;;;;;19.48;10.68;;;;;;;6.58;30.42;100663.87;7762893;32;39392;-74
2022/03/24 05:59:03;;;;;;;20.17;10.63;;;;;;;6.71;30.30;100668.31;7762581;32;40566;-76
2022/03/24 06:03:21;;;;;;;22.42;10.48;;;;;;;6.75;30.74;100667.66;7762453;32;38544;-76
2022/03/24 06:07:38;;;;;;;22.85;10.52;;;;;;;6.74;30.80;100663.31;7762521;32;36246;-74
2022/03/24 06:11:56;;;;;;;18.33;10.23;;;;;;;7.09;30.16;100662.69;7764664;32;39956;-75
2022/03/24 06:16:13;;;;;;;21.80;11.38;;;;;;;7.23;29.81;100665.25;7752499;32;40984;-74
2022/03/24 06:20:30;;;;;;;21.73;11.10;;;;;;;7.30;29.14;100665.97;7766298;32;37677;-74
2022/03/24 06:24:46;;;;;;;20.90;11.05;;;;;;;7.23;29.48;100662.53;7766191;32;37389;-75
2022/03/24 06:29:02;;;;;;;19.17;10.20;;;;;;;7.61;29.31;100658.69;7766120;32;40131;-77
2022/03/24 06:33:18;;;;;;;25.42;11.40;;;;;;;7.86;28.87;100659.34;7766106;32;39944;-75
2022/03/24 06:37:40;;;;;;;24.77;11.68;;;;;;;8.05;28.66;100656.53;7765784;32;38730;-75
2022/03/24 06:41:56;;;;;;;28.12;12.27;;;;;;;8.32;28.72;100661.53;7765908;32;37889;-74
2022/03/24 06:46:12;;;;;;;22.98;12.77;;;;;;;8.42;29.56;100654.47;7766008;32;39573;-72
2022/03/24 06:50:29;;;;;;;23.48;12.90;;;;;;;9.18;35.25;100649.03;7765847;32;39900;-74
2022/03/24 06:54:45;;;;;;;30.48;14.40;;;;;;;9.34;28.35;100652.88;7763210;32;37894;-75
2022/03/24 06:59:01;;;;;;;28.35;14.43;;;;;;;9.49;27.56;100646.09;7765594;32;37316;-76
2022/03/24 07:03:17;;;;;;;26.50;13.90;;;;;;;9.76;27.92;100644.41;7765625;32;40531;-76
2022/03/24 07:07:33;;;;;;;26.75;14.38;;;;;;;10.12;27.18;100636.00;7765592;32;40877;-76
2022/03/24 07:11:50;;;;;;;32.65;15.13;;;;;;;10.27;26.73;100635.41;7765415;32;38233;-76
2022/03/24 07:16:06;;;;;;;33.75;16.77;;;;;;;10.75;26.89;100633.97;7765552;32;37418;-76
2022/03/24 07:20:23;;;;;;;33.53;17.05;;;;;;;10.83;29.02;100635.41;7765352;32;39385;-76
2022/03/24 07:24:39;;;;;;;29.85;15.90;;;;;;;10.84;30.85;100643.34;7764754;32;41300;-76
2022/03/24 07:28:55;;;;;;;32.75;16.00;;;;;;;11.42;29.08;100634.75;7765407;32;37892;-77
2022/03/24 07:33:11;;;;;;;29.63;16.25;;;;;;;11.44;26.74;100638.88;7765454;32;37389;-77
2022/03/24 07:37:29;;;;;;;27.75;14.85;;;;;;;11.43;26.38;100639.97;7765357;32;39027;-76
2022/03/24 07:41:45;;;;;;;23.83;14.07;;;;;;;12.11;24.54;100627.78;7765245;32;39869;-76
2022/03/24 07:46:01;;;;;;;25.73;13.90;;;;;;;12.48;23.95;100633.22;7765156;32;37970;-77
2022/03/24 07:50:17;;;;;;;26.25;14.38;;;;;;;13.07;23.07;100621.22;7765249;32;37762;-77
2022/03/24 07:54:40;;;;;;;21.58;13.10;;;;;;;13.02;23.50;100625.81;7765063;32;39857;-78
2022/03/24 07:58:58;;;;;;;29.00;14.23;;;;;;;13.23;22.69;100621.22;7764884;32;40755;-78
2022/03/24 08:03:16;;;;;;;24.27;14.20;;;;;;;12.74;22.59;100616.94;7764841;32;38097;-77
2022/03/24 08:07:32;;;;;;;20.08;11.95;;;;;;;13.35;22.34;100616.41;7763638;32;36177;-77
2022/03/24 08:11:48;;;;;;;21.15;12.50;;;;;;;13.44;21.48;100616.69;7753233;32;40605;-77
2022/03/24 08:16:05;;;;;;;20.60;13.10;;;;;;;13.42;21.48;100621.59;7750568;32;40772;-74
2022/03/24 08:20:23;;;;;;;24.92;12.50;;;;;;;13.84;20.46;100613.16;7749298;32;37987;-75
2022/03/24 08:24:39;;;;;;;25.95;13.02;;;;;;;13.77;20.46;100625.50;7750468;32;37296;-76
2022/03/24 08:28:57;;;;;;;29.65;13.20;;;;;;;13.99;21.48;100617.84;7752971;32;40121;-76
2022/03/24 08:33:13;;;;;;;32.05;12.75;;;;;;;13.96;23.05;100614.81;7763713;32;42219;-75
2022/03/24 08:37:29;;;;;;;21.62;12.65;;;;;;;14.09;20.67;100623.31;7763925;32;38543;-74
2022/03/24 08:41:51;;;;;;;21.67;12.85;;;;;;;14.24;20.15;100624.41;7764448;32;37510;-73
2022/03/24 08:46:09;;;;;;;18.70;12.45;;;;;;;14.63;19.77;100618.31;7764365;32;40556;-78
2022/03/24 08:50:25;;;;;;;22.95;13.07;;;;;;;14.74;20.64;100619.13;7763828;32;40820;-78
2022/03/24 08:54:41;;;;;;;25.85;12.43;;;;;;;14.54;19.49;100618.03;7763829;32;37712;-77
2022/03/24 08:58:58;;;;;;;24.98;12.52;;;;;;;15.41;18.67;100603.13;7749920;32;37905;-75
2022/03/24 09:03:14;;;;;;;35.80;12.98;;;;;;;15.26;18.59;100595.81;7762622;32;39420;-75
2022/03/24 09:07:30;;;;;;;23.48;12.82;;;;;;;15.88;20.15;100598.16;7763937;32;40846;-75
2022/03/24 09:11:46;;;;;;;20.55;11.70;;;;;;;15.99;18.46;100605.22;7749606;32;38038;-76
2022/03/24 09:16:02;;;;;;;23.30;12.73;;;;;;;16.21;18.10;100606.66;7763680;32;37112;-73
2022/03/24 09:20:19;;;;;;;25.80;13.38;;;;;;;15.93;19.19;100601.69;7763629;32;39306;-75
2022/03/24 09:24:36;;;;;;;29.45;12.75;;;;;;;15.82;18.49;100605.63;7763341;32;41284;-75
2022/03/24 09:28:52;;;;;;;24.40;12.25;;;;;;;16.37;18.37;100588.91;7763333;32;37970;-75
2022/03/24 09:33:09;;;;;;;23.60;12.50;;;;;;;16.78;18.04;100595.88;7762774;32;37931;-74
2022/03/24 09:37:25;;;;;;;21.67;13.32;;;;;;;16.52;17.81;100594.25;7761977;32;38952;-75
2022/03/24 09:41:46;;;;;;;22.27;13.02;;;;;;;16.63;17.80;100600.47;7761115;32;40035;-74
2022/03/24 09:46:02;;;;;;;23.73;14.57;;;;;;;17.33;17.75;100600.97;7764127;32;38722;-71
2022/03/24 09:50:20;;;;;;;27.23;12.95;;;;;;;17.07;18.20;100599.41;7765679;32;37934;-71
2022/03/24 09:54:45;;;;;;;24.08;13.45;;;;;;;17.80;17.64;100590.91;7752512;32;40037;-71
2022/03/24 09:59:02;;;;;;;22.20;12.85;;;;;;;17.69;18.37;100586.66;7766205;32;39940;-77
2022/03/24 10:03:21;;;;;;;25.77;13.93;;;;;;;17.52;19.01;100592.72;7765866;32;38826;-80
2022/03/24 10:07:46;;;;;;;26.08;13.60;;;;;;;18.25;19.79;100579.37;7752667;32;38218;-81
2022/03/24 10:12:05;;;;;;;24.55;13.15;;;;;;;18.43;17.84;100577.69;7766272;32;39251;-82
2022/03/24 10:16:33;;;;;;;20.45;12.25;;;;;;;18.13;17.91;100585.41;7766251;32;38915;-81
2022/03/24 10:20:49;;;;;;;20.55;12.10;;;;;;;18.23;18.18;100571.44;7766123;32;38657;-81
2022/03/24 10:25:20;;;;;;;21.12;10.43;;;;;;;18.72;17.51;100560.81;7752292;32;36910;-81
2022/03/24 10:29:37;;;;;;;20.92;12.20;;;;;;;19.60;15.81;100560.53;7766265;32;39027;-81
2022/03/24 10:33:53;;;;;;;16.83;10.55;;;;;;;20.55;15.71;100556.69;7765994;32;39971;-82
2022/03/24 10:38:12;;;;;;;17.33;10.80;;;;;;;20.98;13.72;100553.25;7765522;32;38245;-82
2022/03/24 10:42:30;;;;;;;17.87;10.45;;;;;;;21.09;13.70;100547.38;7752383;32;37260;-81
2022/03/24 10:46:46;;;;;;;19.75;10.25;;;;;;;22.23;13.49;100540.59;7765901;32;38298;-80
2022/03/24 10:51:03;;;;;;;18.02;9.75;;;;;;;22.32;12.66;100540.59;7765778;32;40876;-81
2022/03/24 10:55:44;;;;;;;17.30;9.98;;;;;;;23.52;12.66;100536.56;7751932;32;38770;-80
2022/03/24 11:00:03;;;;;;;16.77;9.82;;;;;;;23.17;12.09;100528.50;7724060;32;38004;-80
2022/03/24 11:04:20;;;;;;;18.00;10.23;;;;;;;22.77;12.25;100536.47;7738645;32;39061;-81
2022/03/24 11:08:37;;;;;;;18.75;10.18;;;;;;;22.13;12.72;100525.09;7738614;32;40057;-81
2022/03/24 11:12:54;;;;;;;18.80;11.07;;;;;;;21.96;12.68;100516.03;7738271;32;37792;-80
2022/03/24 11:17:10;;;;;;;16.40;10.52;;;;;;;22.41;12.48;100516.38;7737337;32;37353;-79
2022/03/24 11:21:58;;;;;;;14.23;9.63;;;;;;;23.10;11.50;100511.56;7738544;32;39987;-79
2022/03/24 11:26:15;;;;;;;25.83;13.27;;;;;;;22.82;11.61;100512.06;7731520;32;39990;-79
2022/03/24 11:30:32;;;;;;;19.10;10.77;;;;;;;22.55;12.40;100499.47;7736690;32;37580;-85
2022/03/24 11:34:48;;;;;;;16.48;9.85;;;;;;;22.42;12.07;100501.34;7738383;32;37311;-83
2022/03/24 11:39:08;;;;;;;15.43;8.95;;;;;;;22.90;11.77;100490.09;7738505;32;40096;-83
2022/03/24 11:43:24;;;;;;;21.08;10.93;;;;;;;23.43;10.81;100486.56;7738256;32;40810;-84
2022/03/24 11:47:55;;;;;;;21.30;12.35;;;;;;;23.24;11.24;100477.91;7738166;32;38014;-83
2022/03/24 11:52:11;;;;;;;14.60;8.43;;;;;;;22.72;11.27;100479.09;7738266;32;36978;-82
2022/03/24 11:56:27;;;;;;;20.58;8.27;;;;;;;23.11;10.57;100463.13;7744435;32;39139;-82
2022/03/24 12:00:43;;;;;;;15.70;8.60;;;;;;;24.16;9.82;100459.25;7765060;32;39803;-83
2022/03/24 12:04:59;;;;;;;14.87;8.57;;;;;;;24.37;10.07;100456.34;7764948;32;37969;-79
2022/03/24 12:09:25;;;;;;;12.73;7.62;;;;;;;24.72;9.26;100445.53;7764820;32;37836;-78
2022/03/24 12:13:54;;;;;;;16.20;8.20;;;;;;;24.47;9.27;100438.34;7764967;32;39832;-78
2022/03/24 12:18:15;;;;;;;12.40;6.85;;;;;;;24.33;9.01;100442.28;7750973;32;40732;-81
2022/03/24 12:22:36;;;;;;;13.32;6.70;;;;;;;24.65;9.26;100422.22;7751073;32;37863;-78
2022/03/24 12:26:54;;;;;;;11.80;6.70;;;;;;;25.54;7.94;100414.75;7764507;32;37199;-78
2022/03/24 12:31:11;;;;;;;14.32;6.60;;;;;;;24.71;7.69;100418.78;7764718;32;38423;-78
2022/03/24 12:35:55;;;;;;;11.73;5.40;;;;;;;25.08;9.11;100401.16;7750581;32;40014;-79
2022/03/24 12:40:12;;;;;;;13.95;6.50;;;;;;;26.44;8.06;100398.25;7764388;32;38482;-78
2022/03/24 12:44:48;;;;;;;11.18;6.18;;;;;;;25.69;7.42;100391.62;7764338;32;37965;-79
2022/03/24 12:49:07;;;;;;;15.65;5.68;;;;;;;25.98;8.00;100387.59;7764551;32;39486;-79
2022/03/24 12:53:42;;;;;;;13.10;5.30;;;;;;;26.45;7.56;100385.87;7764048;32;40844;-79
2022/03/24 12:58:00;;;;;;;10.88;4.75;;;;;;;26.60;6.54;100378.63;7752531;32;35720;-79
2022/03/24 13:02:16;;;;;;;8.85;4.90;;;;;;;26.26;6.88;100364.28;7763871;32;39437;-79
2022/03/24 13:06:39;;;;;;;10.88;4.22;;;;;;;26.58;7.17;100359.41;7764049;32;40297;-79
2022/03/24 13:11:02;;;;;;;13.35;4.40;;;;;;;26.87;6.48;100360.06;7763785;32;39582;-78
2022/03/24 13:15:21;;;;;;;7.85;4.55;;;;;;;27.17;6.63;100351.81;7763601;32;38663;-79
2022/03/24 13:19:38;;;;;;;8.95;4.62;;;;;;;27.61;5.96;100347.81;7764260;32;36838;-79
2022/03/24 13:23:54;;;;;;;10.20;4.97;;;;;;;27.15;6.05;100348.59;7772498;32;40046;-79
2022/03/24 13:28:11;;;;;;;7.90;4.78;;;;;;;27.18;6.47;100344.22;7772307;32;40718;-79
2022/03/24 13:32:28;;;;;;;9.65;5.28;;;;;;;27.99;6.14;100348.03;7766565;32;37579;-78
2022/03/24 13:36:43;;;;;;;13.13;5.18;;;;;;;27.41;5.76;100337.88;7757668;32;37054;-78
2022/03/24 13:41:06;;;;;;;7.80;4.80;;;;;;;26.32;6.48;100336.88;7758321;32;40033;-79
2022/03/24 13:45:22;;;;;;;13.40;6.97;;;;;;;26.19;6.49;100331.41;7757162;32;40988;-79
2022/03/24 13:49:42;;;;;;;10.68;5.78;;;;;;;26.79;6.60;100325.53;7758107;32;37741;-76
2022/03/24 13:54:17;;;;;;;9.32;4.68;;;;;;;27.90;6.41;100325.88;7756659;32;37911;-75
2022/03/24 13:58:33;;;;;;;8.48;5.18;;;;;;;27.34;5.82;100316.97;7743787;32;38110;-78
2022/03/24 14:02:57;;;;;;;9.10;5.25;;;;;;;26.79;6.77;100321.91;7756815;32;41027;-78
2022/03/24 14:07:14;;;;;;;10.82;5.25;;;;;;;25.96;6.86;100322.13;7750318;32;38682;-78
2022/03/24 14:11:30;;;;;;;10.10;4.97;;;;;;;26.20;6.51;100316.28;7744344;32;37975;-77
2022/03/24 14:15:47;;;;;;;9.23;4.65;;;;;;;26.80;6.31;100306.75;7744305;32;39385;-80
2022/03/24 14:20:08;;;;;;;9.27;4.80;;;;;;;26.31;6.61;100308.13;7744222;32;40026;-77
2022/03/24 14:24:27;;;;;;;9.38;5.05;;;;;;;25.96;6.66;100305.34;7730565;32;37831;-74
2022/03/24 14:28:45;;;;;;;9.40;4.82;;;;;;;25.03;6.74;100304.59;7744117;32;37455;-79
2022/03/24 14:33:01;;;;;;;7.68;4.35;;;;;;;24.90;7.03;100300.25;7727339;32;39856;-79
2022/03/24 14:37:18;;;;;;;11.05;5.20;;;;;;;25.60;6.87;100294.09;7738969;32;40804;-79
2022/03/24 14:41:36;;;;;;;7.78;4.45;;;;;;;26.40;6.14;100291.13;7712561;32;38056;-80
2022/03/24 14:45:53;;;;;;;7.93;4.80;;;;;;;26.36;5.78;100295.84;7736088;32;37008;-77
2022/03/24 14:50:09;;;;;;;8.57;4.32;;;;;;;27.18;5.50;100288.25;7738534;32;39677;-79
2022/03/24 14:54:26;;;;;;;12.70;4.68;;;;;;;27.51;5.89;100286.84;7754720;32;40879;-79
2022/03/24 14:58:42;;;;;;;8.70;4.32;;;;;;;26.56;5.68;100283.50;7755249;32;37892;-80
2022/03/24 15:02:58;;;;;;;6.82;3.75;;;;;;;26.70;5.22;100282.16;7765164;32;37778;-80
2022/03/24 15:07:15;;;;;;;8.38;4.00;;;;;;;26.99;4.92;100283.53;7763031;32;39387;-80
2022/03/24 15:11:31;;;;;;;7.72;4.43;;;;;;;27.32;4.48;100285.75;7756268;32;40599;-81
2022/03/24 15:16:03;;;;;;;11.23;4.70;;;;;;;27.57;4.97;100274.16;7764952;32;37601;-80
2022/03/24 15:20:19;;;;;;;7.50;4.53;;;;;;;27.57;4.75;100273.34;7765286;32;37180;-81
2022/03/24 15:24:37;;;;;;;9.60;5.12;;;;;;;27.28;5.09;100273.66;7765118;32;40120;-81
2022/03/24 15:28:54;;;;;;;9.70;5.20;;;;;;;27.03;5.21;100272.38;7764898;32;39968;-80
2022/03/24 15:33:14;;;;;;;11.25;5.22;;;;;;;26.64;5.63;100278.06;7764947;32;38624;-80
2022/03/24 15:37:30;;;;;;;8.85;5.68;;;;;;;26.93;6.01;100271.84;7764535;32;37126;-81
2022/03/24 15:41:47;;;;;;;9.50;5.43;;;;;;;26.52;6.32;100270.63;7765413;32;39589;-81
2022/03/24 15:46:03;;;;;;;10.32;5.30;;;;;;;25.89;6.63;100277.19;7764032;32;39627;-80
2022/03/24 15:50:21;;;;;;;9.57;4.95;;;;;;;25.67;6.94;100280.31;7764565;32;37982;-81
2022/03/24 15:54:39;;;;;;;10.90;5.90;;;;;;;25.78;6.65;100279.75;7764694;32;37330;-81
2022/03/24 15:58:55;;;;;;;10.07;5.93;;;;;;;25.38;6.72;100281.59;7764097;32;39551;-81
2022/03/24 16:03:11;;;;;;;10.45;5.68;;;;;;;25.52;6.91;100278.34;7764802;32;40023;-81
2022/03/24 16:07:28;;;;;;;11.52;5.93;;;;;;;25.88;6.92;100278.41;7764359;32;38640;-81
2022/03/24 16:11:44;;;;;;;12.37;6.18;;;;;;;25.53;7.13;100284.75;7764510;32;36843;-80
2022/03/24 16:16:00;;;;;;;11.40;5.80;;;;;;;27.56;5.97;100272.53;7764384;32;39390;-81
2022/03/24 16:20:18;;;;;;;10.52;5.47;;;;;;;28.92;4.91;100278.34;7764434;32;39967;-82
2022/03/24 16:24:34;;;;;;;14.35;5.97;;;;;;;30.00;4.59;100284.91;7764332;32;37969;-83
2022/03/24 16:28:50;;;;;;;11.63;6.80;;;;;;;30.14;4.53;100282.16;7764328;32;37134;-81
2022/03/24 16:33:06;;;;;;;10.38;5.95;;;;;;;29.66;4.83;100285.06;7764747;32;39073;-82
2022/03/24 16:37:23;;;;;;;10.73;6.87;;;;;;;29.59;4.87;100278.16;7764093;32;40089;-83
2022/03/24 16:41:39;;;;;;;11.23;6.43;;;;;;;28.63;5.90;100292.88;7764067;32;38029;-83
2022/03/24 16:45:55;;;;;;;11.35;6.80;;;;;;;28.31;5.68;100300.88;7763766;32;37899;-83
2022/03/24 16:50:14;;;;;;;12.65;6.50;;;;;;;27.31;6.10;100303.72;7764152;32;39421;-84
2022/03/24 16:54:30;;;;;;;14.10;6.43;;;;;;;26.64;6.74;100311.63;7762875;32;39948;-81
2022/03/24 16:58:46;;;;;;;11.63;6.53;;;;;;;25.39;7.43;100316.72;7763490;32;37903;-81
2022/03/24 17:03:03;;;;;;;10.45;6.20;;;;;;;24.42;8.14;100325.13;7763736;32;37286;-84
2022/03/24 17:07:20;;;;;;;11.48;6.62;;;;;;;24.04;8.27;100336.69;7763460;32;39312;-84
2022/03/24 17:11:36;;;;;;;11.45;6.40;;;;;;;23.36;8.81;100343.62;7763663;32;40841;-84
2022/03/24 17:15:53;;;;;;;15.80;6.75;;;;;;;22.50;9.25;100339.31;7763405;32;38057;-83
2022/03/24 17:20:13;;;;;;;11.12;6.18;;;;;;;22.33;9.72;100350.56;7763596;32;37951;-83
2022/03/24 17:24:29;;;;;;;78.72;48.75;;;;;;;21.81;10.10;100357.22;7763500;32;40239;-83
2022/03/24 17:28:45;;;;;;;16.67;10.98;;;;;;;21.36;10.37;100361.28;7763066;32;39977;-83
2022/03/24 17:33:03;;;;;;;14.60;7.82;;;;;;;21.05;10.69;100371.78;7763107;32;38898;-83
2022/03/24 17:37:20;;;;;;;12.60;7.03;;;;;;;20.91;11.09;100372.78;7762933;32;37917;-83
2022/03/24 17:41:36;;;;;;;19.30;7.50;;;;;;;20.44;11.67;100394.75;7762934;32;40099;-82
2022/03/24 17:45:52;;;;;;;18.60;7.22;;;;;;;20.13;12.11;100392.03;7762586;32;40017;-83
2022/03/24 17:50:15;;;;;;;12.95;6.87;;;;;;;20.07;12.19;100405.22;7762677;32;37924;-82
2022/03/24 17:54:31;;;;;;;23.42;11.05;;;;;;;19.65;12.54;100407.47;7762652;32;37156;-82
2022/03/24 17:58:47;;;;;;;34.97;17.45;;;;;;;19.43;12.17;100409.13;7762137;32;40119;-82
2022/03/24 18:03:03;;;;;;;20.83;12.07;;;;;;;19.30;12.22;100419.16;7762318;32;40804;-82
2022/03/24 18:07:19;;;;;;;22.98;9.85;;;;;;;19.07;12.59;100421.09;7763774;32;38279;-82
2022/03/24 18:11:35;;;;;;;26.58;14.02;;;;;;;18.87;12.87;100427.94;7766281;32;37193;-81
2022/03/24 18:15:51;;;;;;;20.52;10.43;;;;;;;18.77;12.82;100440.00;7765669;32;39613;-82
2022/03/24 18:20:08;;;;;;;32.83;16.50;;;;;;;18.71;12.75;100444.03;7765906;32;40509;-82
2022/03/24 18:24:25;;;;;;;29.35;13.50;;;;;;;18.59;12.52;100449.22;7751837;32;38772;-82
2022/03/24 18:28:41;;;;;;;15.68;7.50;;;;;;;18.53;12.68;100453.25;7765698;32;36936;-82
2022/03/24 18:32:57;;;;;;;16.33;8.43;;;;;;;18.48;13.11;100456.12;7765856;32;39752;-81
2022/03/24 18:37:13;;;;;;;18.10;8.95;;;;;;;18.36;13.13;100457.44;7765488;32;39645;-81
2022/03/24 18:41:30;;;;;;;19.15;8.45;;;;;;;18.07;13.41;100465.22;7765675;32;38454;-81
2022/03/24 18:45:46;;;;;;;14.40;8.20;;;;;;;17.84;13.94;100473.34;7765955;32;37280;-81
2022/03/24 18:50:04;;;;;;;15.65;7.72;;;;;;;17.80;14.28;100475.09;7764650;32;39271;-81
2022/03/24 18:54:21;;;;;;;18.30;8.55;;;;;;;17.83;14.11;100488.25;7765557;32;39975;-81
2022/03/24 18:58:39;;;;;;;15.20;8.00;;;;;;;17.52;13.86;100487.97;7765624;32;37757;-81
2022/03/24 19:02:55;;;;;;;17.25;8.45;;;;;;;17.62;13.67;100499.62;7765694;32;37274;-81
2022/03/24 19:07:13;;;;;;;20.45;8.60;;;;;;;17.44;14.29;100508.78;7764687;32;40188;-82
2022/03/24 19:11:29;;;;;;;19.23;8.45;;;;;;;17.33;14.35;100518.31;7739320;32;38961;-81
2022/03/24 19:15:46;;;;;;;15.88;8.07;;;;;;;17.44;14.09;100519.81;7747840;32;38443;-79
2022/03/24 19:20:05;;;;;;;14.50;7.82;;;;;;;17.14;15.01;100510.06;7751812;32;36594;-81
2022/03/24 19:24:21;;;;;;;16.70;8.07;;;;;;;16.99;15.11;100527.63;7763048;32;39790;-82
2022/03/24 19:28:37;;;;;;;30.58;21.35;;;;;;;16.89;15.13;100531.34;7765446;32;39663;-81
2022/03/24 19:32:54;;;;;;;28.58;20.60;;;;;;;16.95;14.61;100535.66;7765289;32;37606;-82
2022/03/24 19:37:11;;;;;;;21.52;14.65;;;;;;;16.34;15.34;100539.97;7751465;32;37335;-81
2022/03/24 19:41:26;;;;;;;17.45;9.48;;;;;;;16.62;15.34;100548.44;7765251;32;40045;-81
2022/03/24 19:45:43;;;;;;;14.93;8.55;;;;;;;16.67;15.44;100545.63;7765234;32;40110;-82
2022/03/24 19:49:59;;;;;;;16.67;8.82;;;;;;;16.69;15.47;100554.41;7751271;32;38026;-81